createdAt,value
2018-08-02T00:00:50.176Z,3.8
2018-08-02T00:01:50.298Z,3.6
2018-08-02T00:02:50.232Z,3.8
2018-08-02T00:03:50.178Z,3.8
2018-08-02T00:04:50.170Z,3.8
2018-08-02T00:05:50.924Z,3.5
2018-08-02T00:06:51.491Z,3.4
2018-08-02T00:08:50.203Z,3.3
2018-08-02T00:09:50.680Z,3.3
2018-08-02T00:10:50.192Z,3.5
2018-08-02T00:11:50.733Z,3.5
2018-08-02T00:12:50.201Z,3.5
2018-08-02T00:13:50.777Z,3.2
2018-08-02T00:14:50.231Z,3.4
2018-08-02T00:17:43.826Z,3.5
2018-08-02T00:18:43.447Z,3.2
2018-08-02T00:19:43.803Z,3.5
2018-08-02T00:20:44.012Z,3.3
2018-08-02T00:21:43.195Z,3.5
2018-08-02T00:22:42.580Z,3.7
2018-08-02T00:23:43.878Z,3.5
2018-08-02T00:24:43.222Z,3.2
2018-08-02T00:25:43.785Z,3.0
2018-08-02T00:26:43.032Z,3.6
2018-08-02T00:27:43.173Z,3.4
2018-08-02T00:28:42.490Z,3.1
2018-08-02T00:29:42.426Z,3.4
2018-08-02T00:30:43.026Z,3.4
2018-08-02T00:31:42.531Z,3.5
2018-08-02T00:32:42.444Z,3.2
2018-08-02T00:33:43.301Z,3.4
2018-08-02T00:34:42.481Z,3.5
2018-08-02T00:35:42.528Z,3.6
2018-08-02T00:38:42.568Z,3.1
2018-08-02T00:39:45.865Z,3.3
2018-08-02T00:40:43.268Z,3.5
2018-08-02T00:41:43.282Z,3.3
2018-08-02T00:42:43.048Z,3.4
2018-08-02T00:43:43.154Z,3.2
2018-08-02T00:44:44.570Z,3.1
2018-08-02T00:45:44.518Z,3.2
2018-08-02T00:46:43.286Z,3.0
2018-08-02T00:47:43.835Z,3.3
2018-08-02T00:48:44.333Z,3.4
2018-08-02T00:49:45.553Z,3.2
2018-08-02T00:50:43.798Z,3.0
2018-08-02T00:51:43.748Z,3.3
2018-08-02T00:52:43.692Z,3.2
2018-08-02T00:53:43.977Z,3.1
2018-08-02T00:54:44.606Z,3.0
2018-08-02T00:55:44.695Z,3.5
2018-08-02T00:56:43.111Z,3.2
2018-08-02T00:57:42.647Z,3.5
2018-08-02T00:58:42.575Z,3.0
2018-08-02T00:59:45.942Z,3.2
2018-08-02T01:00:42.465Z,3.2
2018-08-02T01:01:43.184Z,3.2
2018-08-02T01:02:43.893Z,3.3
2018-08-02T01:03:43.872Z,3.2
2018-08-02T01:04:42.592Z,3.2
2018-08-02T01:06:43.280Z,3.5
2018-08-02T01:07:42.635Z,3.5
2018-08-02T01:08:45.013Z,3.3
2018-08-02T01:09:43.207Z,2.9
2018-08-02T01:10:43.243Z,3.1
2018-08-02T01:11:43.930Z,3.2
2018-08-02T01:12:42.524Z,3.1
2018-08-02T01:13:42.484Z,2.9
2018-08-02T01:14:43.075Z,3.3
2018-08-02T01:15:43.873Z,3.3
2018-08-02T01:17:45.074Z,3.4
2018-08-02T01:18:46.365Z,3.2
2018-08-02T01:19:53.485Z,2.9
2018-08-02T01:21:35.923Z,3.2
2018-08-02T01:21:46.777Z,3.2
2018-08-02T01:22:46.715Z,3.1
2018-08-02T01:23:46.273Z,3.2
2018-08-02T01:24:45.476Z,2.8
2018-08-02T01:25:48.299Z,3.2
2018-08-02T01:26:47.904Z,3.0
2018-08-02T01:27:45.452Z,3.2
2018-08-02T01:28:45.520Z,3.1
2018-08-02T01:29:48.473Z,3.0
2018-08-02T01:30:44.915Z,3.0
2018-08-02T01:31:44.887Z,3.1
2018-08-02T01:32:44.869Z,2.9
2018-08-02T01:33:44.815Z,2.9
2018-08-02T01:34:44.836Z,2.9
2018-08-02T01:35:45.555Z,2.7
2018-08-02T01:36:44.920Z,2.7
2018-08-02T01:37:44.861Z,3.0
2018-08-02T01:38:44.821Z,3.0
2018-08-02T01:39:44.869Z,2.9
2018-08-02T01:40:44.829Z,2.9
2018-08-02T01:41:44.837Z,3.1
2018-08-02T01:42:45.498Z,2.8
2018-08-02T01:43:44.851Z,2.9
2018-08-02T01:44:44.829Z,3.1
2018-08-02T01:45:44.875Z,2.8
2018-08-02T01:46:44.960Z,2.9
2018-08-02T01:47:45.535Z,3.0
2018-08-02T01:48:44.995Z,3.0
2018-08-02T01:49:44.965Z,2.8
2018-08-02T01:50:44.964Z,2.8
2018-08-02T01:51:44.910Z,3.1
2018-08-02T01:52:44.936Z,3.1
2018-08-02T01:53:44.934Z,3.0
2018-08-02T01:54:45.005Z,3.2
2018-08-02T01:55:45.611Z,3.0
2018-08-02T01:56:44.884Z,3.3
2018-08-02T01:58:13.724Z,3.8
2018-08-02T01:58:44.886Z,3.9
2018-08-02T01:59:44.855Z,3.6
2018-08-02T02:00:44.936Z,4.0
2018-08-02T02:01:45.517Z,3.6
2018-08-02T02:02:45.523Z,3.6
2018-08-02T02:04:46.133Z,3.6
2018-08-02T02:05:46.167Z,3.3
2018-08-02T02:07:45.538Z,3.0
2018-08-02T02:08:46.729Z,3.3
2018-08-02T02:09:44.869Z,3.2
2018-08-02T02:10:46.255Z,3.1
2018-08-02T02:11:45.598Z,3.4
2018-08-02T02:12:44.921Z,3.4
2018-08-02T02:13:45.645Z,2.9
2018-08-02T02:14:46.241Z,3.1
2018-08-02T02:15:46.875Z,3.3
2018-08-02T02:16:45.584Z,3.4
2018-08-02T02:18:44.931Z,3.5
2018-08-02T02:19:45.498Z,3.3
2018-08-02T02:20:44.889Z,3.3
2018-08-02T02:21:44.949Z,3.3
2018-08-02T02:22:46.117Z,3.4
2018-08-02T02:23:44.947Z,3.2
2018-08-02T02:24:47.276Z,3.4
2018-08-02T02:25:45.487Z,3.5
2018-08-02T02:26:49.027Z,3.2
2018-08-02T02:27:44.957Z,3.8
2018-08-02T02:38:38.579Z,3.3
2018-08-02T02:39:38.976Z,3.3
2018-08-02T02:40:39.620Z,3.3
2018-08-02T02:41:38.831Z,3.3
2018-08-02T02:42:39.085Z,3.3
2018-08-02T02:43:39.024Z,3.5
2018-08-02T02:44:38.370Z,3.4
2018-08-02T02:45:39.947Z,3.6
2018-08-02T02:46:38.360Z,3.5
2018-08-02T02:47:38.313Z,3.2
2018-08-02T02:50:51.359Z,3.5
2018-08-02T02:52:51.606Z,3.7
2018-08-02T02:53:51.436Z,3.6
2018-08-02T02:54:51.423Z,3.7
2018-08-02T02:55:52.047Z,3.3
2018-08-02T02:56:51.366Z,3.7
2018-08-02T02:57:50.742Z,3.7
2018-08-02T02:58:52.303Z,3.6
2018-08-02T03:00:01.638Z,3.5
2018-08-02T03:01:52.024Z,3.8
2018-08-02T03:02:52.039Z,3.7
2018-08-02T03:04:52.142Z,3.5
2018-08-02T03:05:50.945Z,3.6
2018-08-02T03:06:52.074Z,3.8
2018-08-02T03:07:51.515Z,3.5
2018-08-02T03:08:52.008Z,3.6
2018-08-02T03:09:50.837Z,3.5
2018-08-02T03:10:51.990Z,3.7
2018-08-02T03:12:51.468Z,3.8
2018-08-02T03:13:52.751Z,3.6
2018-08-02T03:14:51.528Z,3.7
2018-08-02T03:15:51.500Z,3.7
2018-08-02T03:16:50.850Z,4.1
2018-08-02T03:18:52.493Z,4.0
2018-08-02T03:19:51.943Z,3.9
2018-08-02T03:20:50.902Z,4.2
2018-08-02T03:21:52.900Z,4.0
2018-08-02T03:22:51.467Z,3.9
2018-08-02T03:23:51.435Z,4.5
2018-08-02T03:25:51.529Z,4.3
2018-08-02T03:26:50.889Z,4.3
2018-08-02T03:27:52.720Z,4.5
2018-08-02T03:29:50.949Z,4.5
2018-08-02T03:30:52.186Z,4.3
2018-08-02T03:31:51.828Z,4.4
2018-08-02T03:34:01.577Z,4.3
2018-08-02T03:34:51.638Z,4.3
2018-08-02T03:35:53.381Z,4.4
2018-08-02T03:36:51.484Z,4.4
2018-08-02T03:37:51.422Z,4.7
2018-08-02T03:38:51.498Z,4.5
2018-08-02T03:39:51.528Z,4.4
2018-08-02T03:40:52.090Z,4.6
2018-08-02T03:41:51.436Z,4.6
2018-08-02T03:52:41.405Z,4.5
2018-08-02T03:53:41.128Z,4.4
2018-08-02T03:54:40.331Z,4.4
2018-08-02T03:55:41.645Z,4.5
2018-08-02T03:56:41.053Z,4.7
2018-08-02T03:57:41.305Z,4.0
2018-08-02T03:58:40.733Z,4.7
2018-08-02T03:59:41.217Z,4.5
2018-08-02T04:00:41.371Z,4.6
2018-08-02T04:01:41.480Z,4.2
2018-08-02T04:03:33.063Z,4.5
2018-08-02T04:03:44.090Z,4.5
2018-08-02T04:04:43.151Z,4.4
2018-08-02T04:05:42.084Z,4.1
2018-08-02T04:06:44.148Z,4.5
2018-08-02T04:07:42.090Z,4.3
2018-08-02T04:08:42.004Z,4.3
2018-08-02T04:09:42.622Z,4.1
2018-08-02T04:10:42.732Z,4.4
2018-08-02T04:11:42.610Z,4.6
2018-08-02T04:12:42.643Z,4.7
2018-08-02T04:15:55.550Z,4.6
2018-08-02T04:16:55.965Z,4.2
2018-08-02T04:17:54.881Z,4.4
2018-08-02T04:18:55.696Z,4.7
2018-08-02T04:19:54.919Z,4.6
2018-08-02T04:20:55.543Z,4.6
2018-08-02T04:21:54.827Z,4.2
2018-08-02T04:22:54.872Z,4.3
2018-08-02T04:23:54.888Z,4.7
2018-08-02T04:24:54.949Z,4.6
2018-08-02T04:25:54.889Z,4.5
2018-08-02T04:26:54.974Z,4.7
2018-08-02T04:27:54.933Z,4.4
2018-08-02T04:28:55.510Z,4.2
2018-08-02T04:29:55.600Z,4.1
2018-08-02T04:30:54.888Z,4.2
2018-08-02T04:31:55.414Z,4.3
2018-08-02T04:32:55.551Z,4.3
2018-08-02T04:33:55.022Z,4.4
2018-08-02T04:34:54.903Z,4.2
2018-08-02T04:35:54.855Z,4.1
2018-08-02T04:36:54.928Z,4.3
2018-08-02T04:37:55.506Z,4.2
2018-08-02T04:38:55.633Z,4.5
2018-08-02T04:39:54.935Z,4.4
2018-08-02T04:40:54.950Z,4.3
2018-08-02T04:41:54.837Z,4.0
2018-08-02T04:42:54.884Z,4.5
2018-08-02T04:43:54.902Z,4.6
2018-08-02T04:44:54.930Z,4.8
2018-08-02T04:45:54.885Z,5.2
2018-08-02T04:46:54.931Z,5.5
2018-08-02T04:47:54.863Z,5.0
2018-08-02T04:48:54.929Z,5.4
2018-08-02T04:49:54.815Z,5.8
2018-08-02T04:50:56.212Z,5.7
2018-08-02T04:51:54.841Z,5.6
2018-08-02T04:52:55.049Z,5.4
2018-08-02T04:53:55.072Z,5.8
2018-08-02T04:54:55.139Z,5.7
2018-08-02T04:55:54.961Z,5.4
2018-08-02T04:56:55.092Z,5.1
2018-08-02T04:57:55.581Z,5.0
2018-08-02T04:58:55.063Z,4.7
2018-08-02T04:59:55.151Z,5.1
2018-08-02T05:00:55.056Z,4.8
2018-08-02T05:02:55.095Z,4.6
2018-08-02T05:03:55.015Z,4.9
2018-08-02T05:04:55.730Z,4.8
2018-08-02T05:06:55.072Z,5.3
2018-08-02T05:07:55.188Z,5.2
2018-08-02T05:09:55.011Z,5.3
2018-08-02T05:10:55.816Z,4.8
2018-08-02T05:11:55.154Z,5.0
2018-08-02T05:12:56.323Z,5.1
2018-08-02T05:14:55.231Z,4.8
2018-08-02T05:15:55.119Z,5.2
2018-08-02T05:16:55.137Z,5.0
2018-08-02T05:17:55.055Z,4.9
2018-08-02T05:19:55.396Z,4.7
2018-08-02T05:20:55.305Z,4.9
2018-08-02T05:21:55.156Z,5.2
2018-08-02T05:22:56.247Z,4.8
2018-08-02T05:23:55.057Z,4.8
2018-08-02T05:24:55.229Z,4.8
2018-08-02T05:25:55.093Z,5.2
2018-08-02T05:26:55.245Z,5.0
2018-08-02T05:27:55.209Z,5.0
2018-08-02T05:28:56.881Z,5.2
2018-08-02T05:29:55.065Z,4.8
2018-08-02T05:30:55.277Z,4.6
2018-08-02T05:31:54.940Z,4.8
2018-08-02T05:32:55.370Z,4.7
2018-08-02T05:33:55.115Z,4.7
2018-08-02T05:34:55.044Z,5.0
2018-08-02T05:35:55.230Z,4.8
2018-08-02T05:36:55.532Z,5.0
2018-08-02T05:37:54.975Z,4.6
2018-08-02T05:38:54.993Z,4.9
2018-08-02T05:39:55.587Z,4.4
2018-08-02T05:40:55.002Z,5.1
2018-08-02T05:41:56.854Z,5.1
2018-08-02T05:42:55.532Z,4.7
2018-08-02T05:43:54.991Z,5.2
2018-08-02T05:44:54.954Z,4.8
2018-08-02T05:45:54.959Z,4.1
2018-08-02T05:47:54.971Z,4.6
2018-08-02T05:48:55.656Z,4.3
2018-08-02T05:49:54.943Z,4.3
2018-08-02T05:50:54.990Z,4.9
2018-08-02T05:51:54.958Z,3.9
2018-08-02T05:53:54.961Z,4.9
2018-08-02T05:54:55.068Z,4.5
2018-08-02T05:55:54.888Z,4.3
2018-08-02T05:56:55.022Z,4.5
2018-08-02T05:58:56.196Z,4.6
2018-08-02T06:01:54.950Z,4.6
2018-08-02T06:03:54.963Z,4.6
2018-08-02T06:04:55.027Z,4.6
2018-08-02T06:05:55.008Z,4.5
2018-08-02T06:06:54.976Z,4.4
2018-08-02T06:07:54.932Z,4.4
2018-08-02T06:08:54.997Z,4.6
2018-08-02T06:09:55.016Z,4.3
2018-08-02T06:10:55.121Z,4.6
2018-08-02T06:11:55.071Z,4.7
2018-08-02T06:12:55.004Z,4.6
2018-08-02T06:13:54.993Z,4.6
2018-08-02T06:14:55.035Z,5.1
2018-08-02T06:15:55.089Z,4.7
2018-08-02T06:16:55.025Z,4.6
2018-08-02T06:18:55.027Z,4.4
2018-08-02T06:19:55.103Z,4.5
2018-08-02T06:20:55.058Z,4.6
2018-08-02T06:22:55.066Z,4.8
2018-08-02T06:23:55.014Z,4.6
2018-08-02T06:24:55.799Z,4.6
2018-08-02T06:25:55.158Z,4.6
2018-08-02T06:27:55.115Z,4.5
2018-08-02T06:28:55.013Z,4.6
2018-08-02T06:29:55.021Z,4.4
2018-08-02T06:30:55.031Z,4.3
2018-08-02T06:31:55.181Z,4.4
2018-08-02T06:33:55.496Z,4.2
2018-08-02T06:34:55.114Z,4.3
2018-08-02T06:35:55.125Z,4.2
2018-08-02T06:36:55.137Z,3.9
2018-08-02T06:37:55.127Z,4.4
2018-08-02T06:38:55.057Z,4.4
2018-08-02T06:39:55.112Z,4.5
2018-08-02T06:40:55.074Z,4.0
2018-08-02T06:41:55.123Z,4.3
2018-08-02T06:42:55.124Z,4.4
2018-08-02T06:43:55.112Z,4.5
2018-08-02T06:44:55.116Z,4.6
2018-08-02T06:45:55.182Z,4.4
2018-08-02T06:46:55.093Z,4.6
2018-08-02T06:48:55.189Z,4.3
2018-08-02T06:49:55.133Z,4.7
2018-08-02T06:50:55.065Z,4.8
2018-08-02T06:51:55.113Z,4.6
2018-08-02T06:52:55.089Z,4.6
2018-08-02T06:53:55.080Z,4.9
2018-08-02T06:54:55.104Z,4.3
2018-08-02T06:55:55.139Z,4.5
2018-08-02T06:56:55.096Z,4.6
2018-08-02T06:58:55.114Z,4.6
2018-08-02T06:59:55.146Z,4.6
2018-08-02T07:00:55.105Z,4.5
2018-08-02T07:01:55.180Z,4.5
2018-08-02T07:02:55.135Z,4.7
2018-08-02T07:03:55.104Z,4.4
2018-08-02T07:04:55.145Z,4.8
2018-08-02T07:05:55.105Z,4.8
2018-08-02T07:06:55.149Z,4.7
2018-08-02T07:07:55.156Z,4.3
2018-08-02T07:08:55.164Z,4.4
2018-08-02T07:09:55.206Z,4.6
2018-08-02T07:10:55.121Z,4.6
2018-08-02T07:11:55.190Z,4.8
2018-08-02T07:12:55.147Z,4.6
2018-08-02T07:13:55.190Z,5.1
2018-08-02T07:15:55.177Z,5.1
2018-08-02T07:16:55.154Z,4.9
2018-08-02T07:18:55.134Z,5.4
2018-08-02T07:19:55.105Z,5.0
2018-08-02T07:22:55.169Z,5.6
2018-08-02T07:23:55.183Z,5.6
2018-08-02T07:24:55.843Z,5.3
2018-08-02T07:25:55.236Z,5.3
2018-08-02T07:26:56.495Z,5.2
2018-08-02T07:27:55.182Z,5.3
2018-08-02T07:28:55.174Z,5.3
2018-08-02T07:29:55.183Z,5.6
2018-08-02T07:30:55.211Z,5.3
2018-08-02T07:31:55.937Z,5.1
2018-08-02T07:32:55.201Z,5.6
2018-08-02T07:34:55.577Z,5.2
2018-08-02T07:35:55.291Z,5.5
2018-08-02T07:36:55.155Z,5.5
2018-08-02T07:37:55.346Z,5.1
2018-08-02T07:38:55.280Z,5.2
2018-08-02T07:39:55.299Z,5.5
2018-08-02T07:40:55.287Z,5.7
2018-08-02T07:41:55.308Z,5.8
2018-08-02T07:42:56.512Z,5.5
2018-08-02T07:43:55.308Z,5.6
2018-08-02T07:44:55.196Z,5.4
2018-08-02T07:45:55.218Z,5.8
2018-08-02T07:46:55.209Z,5.4
2018-08-02T07:47:55.348Z,5.9
2018-08-02T07:48:55.223Z,5.8
2018-08-02T07:50:55.202Z,5.9
2018-08-02T07:54:55.240Z,6.0
2018-08-02T07:55:55.228Z,5.9
2018-08-02T07:56:55.274Z,6.0
2018-08-02T07:57:55.278Z,6.0
2018-08-02T07:58:55.300Z,5.9
2018-08-02T07:59:55.258Z,6.5
2018-08-02T08:00:55.323Z,6.1
2018-08-02T08:01:55.317Z,6.2
2018-08-02T08:03:55.349Z,6.3
2018-08-02T08:06:55.350Z,6.3
2018-08-02T08:07:55.234Z,6.5
2018-08-02T08:08:55.263Z,6.1
2018-08-02T08:09:55.249Z,6.3
2018-08-02T08:10:55.319Z,6.2
2018-08-02T08:12:55.437Z,6.6
2018-08-02T08:13:55.375Z,7.1
2018-08-02T08:14:55.292Z,7.2
2018-08-02T08:15:55.375Z,7.1
2018-08-02T08:16:55.304Z,6.7
2018-08-02T08:17:55.312Z,6.4
2018-08-02T08:19:55.270Z,7.0
2018-08-02T08:21:55.369Z,6.8
2018-08-02T08:22:55.389Z,7.5
2018-08-02T08:23:55.349Z,6.9
2018-08-02T08:24:55.321Z,7.2
2018-08-02T08:25:55.260Z,6.5
2018-08-02T08:26:55.356Z,6.6
2018-08-02T08:27:55.218Z,6.5
2018-08-02T08:28:55.352Z,6.9
2018-08-02T08:29:55.270Z,6.8
2018-08-02T08:30:55.337Z,7.1
2018-08-02T08:31:55.270Z,6.8
2018-08-02T08:34:55.361Z,7.1
2018-08-02T08:36:55.281Z,7.1
2018-08-02T08:38:55.292Z,7.3
2018-08-02T08:39:55.339Z,6.7
2018-08-02T08:40:55.375Z,7.1
2018-08-02T08:42:55.328Z,7.4
2018-08-02T08:43:55.284Z,7.8
2018-08-02T08:44:55.331Z,7.5
2018-08-02T08:46:55.270Z,7.5
2018-08-02T08:48:55.289Z,7.7
2018-08-02T08:49:55.333Z,7.9
2018-08-02T08:50:55.453Z,7.9
2018-08-02T08:51:55.317Z,7.9
2018-08-02T08:52:55.281Z,8.3
2018-08-02T08:53:55.342Z,8.2
2018-08-02T08:54:55.315Z,8.7
2018-08-02T08:55:55.317Z,8.6
2018-08-02T08:56:55.307Z,7.9
2018-08-02T08:57:55.299Z,8.6
2018-08-02T08:59:55.287Z,8.4
2018-08-02T09:00:57.501Z,8.5
2018-08-02T09:01:55.308Z,8.8
2018-08-02T09:03:55.385Z,8.6
2018-08-02T09:04:55.259Z,8.3
2018-08-02T09:05:55.402Z,8.3
2018-08-02T09:06:55.303Z,8.4
2018-08-02T09:07:55.336Z,8.7
2018-08-02T09:08:55.375Z,8.5
2018-08-02T09:09:55.350Z,8.4
2018-08-02T09:10:55.351Z,8.7
2018-08-02T09:11:55.308Z,8.7
2018-08-02T09:12:55.332Z,8.8
2018-08-02T09:13:55.390Z,8.9
2018-08-02T09:14:55.344Z,9.0
2018-08-02T09:15:55.388Z,8.4
2018-08-02T09:18:55.321Z,9.2
2018-08-02T09:20:55.323Z,8.7
2018-08-02T09:21:55.387Z,8.4
2018-08-02T09:22:55.366Z,8.9
2018-08-02T09:23:55.394Z,8.5
2018-08-02T09:24:55.362Z,8.7
2018-08-02T09:25:55.345Z,9.4
2018-08-02T09:26:55.412Z,8.7
2018-08-02T09:27:55.423Z,7.9
2018-08-02T09:28:55.331Z,7.7
2018-08-02T09:29:55.477Z,8.3
2018-08-02T09:30:55.416Z,8.5
2018-08-02T09:31:55.364Z,8.6
2018-08-02T09:36:32.899Z,8.0
2018-08-02T09:37:32.440Z,8.3
2018-08-02T09:38:32.461Z,8.6
2018-08-02T09:39:32.859Z,8.8
2018-08-02T09:41:32.457Z,9.1
2018-08-02T09:42:33.011Z,9.3
2018-08-02T09:43:32.494Z,8.3
2018-08-02T09:44:32.950Z,9.1
2018-08-02T09:45:32.905Z,10.3
2018-08-02T09:46:33.084Z,9.9
2018-08-02T09:48:32.442Z,10.3
2018-08-02T09:49:33.012Z,9.7
2018-08-02T09:50:32.503Z,9.4
2018-08-02T09:51:32.895Z,9.5
2018-08-02T09:52:32.974Z,9.9
2018-08-02T09:53:32.503Z,9.4
2018-08-02T09:54:32.963Z,9.6
2018-08-02T09:56:32.963Z,10.4
2018-08-02T09:57:32.574Z,9.5
2018-08-02T09:58:32.954Z,10.2
2018-08-02T09:59:33.010Z,9.7
2018-08-02T10:00:32.474Z,9.4
2018-08-02T10:01:32.484Z,9.5
2018-08-02T10:02:32.508Z,9.7
2018-08-02T10:05:32.994Z,9.0
2018-08-02T10:06:32.497Z,9.5
2018-08-02T10:07:32.523Z,9.5
2018-08-02T10:08:32.988Z,9.6
2018-08-02T10:09:33.007Z,9.1
2018-08-02T10:10:32.511Z,9.6
2018-08-02T10:11:32.568Z,9.7
2018-08-02T10:12:32.623Z,8.9
2018-08-02T10:13:32.927Z,8.8
2018-08-02T10:14:32.518Z,8.7
2018-08-02T10:15:32.550Z,8.8
2018-08-02T10:16:32.573Z,9.0
2018-08-02T10:17:32.522Z,8.6
2018-08-02T10:18:33.019Z,8.5
2018-08-02T10:19:33.009Z,8.7
2018-08-02T10:20:32.533Z,8.5
2018-08-02T10:21:33.014Z,8.4
2018-08-02T10:22:32.629Z,8.7
2018-08-02T10:23:32.937Z,9.2
2018-08-02T10:24:33.011Z,9.6
2018-08-02T10:25:33.019Z,9.3
2018-08-02T10:26:33.094Z,8.8
2018-08-02T10:27:32.583Z,8.9
2018-08-02T10:29:32.564Z,9.1
2018-08-02T10:30:32.614Z,8.6
2018-08-02T10:31:32.547Z,8.8
2018-08-02T10:32:32.660Z,8.8
2018-08-02T10:33:33.079Z,9.4
2018-08-02T10:34:32.590Z,9.6
2018-08-02T10:35:32.582Z,9.8
2018-08-02T10:36:33.099Z,9.2
2018-08-02T10:37:32.606Z,8.8
2018-08-02T10:38:32.547Z,8.6
2018-08-02T10:39:33.027Z,9.3
2018-08-02T10:40:33.090Z,8.6
2018-08-02T10:43:33.013Z,7.6
2018-08-02T10:44:33.631Z,8.7
2018-08-02T10:46:33.111Z,8.6
2018-08-02T10:47:32.638Z,8.9
2018-08-02T10:48:32.612Z,9.3
2018-08-02T10:50:32.576Z,9.0
2018-08-02T10:51:33.033Z,9.5
2018-08-02T10:52:32.591Z,9.0
2018-08-02T10:53:33.103Z,9.2
2018-08-02T10:54:32.589Z,9.2
2018-08-02T10:55:32.658Z,9.3
2018-08-02T10:56:32.607Z,9.4
2018-08-02T10:57:33.167Z,8.9
2018-08-02T10:58:32.573Z,8.8
2018-08-02T10:59:32.656Z,8.6
2018-08-02T11:00:32.604Z,8.2
2018-08-02T11:01:32.665Z,8.4
2018-08-02T11:02:32.634Z,8.6
2018-08-02T11:05:33.084Z,9.6
2018-08-02T11:06:32.589Z,9.4
2018-08-02T11:07:33.276Z,9.3
2018-08-02T11:08:32.633Z,9.8
2018-08-02T11:10:33.145Z,9.0
2018-08-02T11:11:32.632Z,8.7
2018-08-02T11:12:33.872Z,8.7
2018-08-02T11:13:33.124Z,8.8
2018-08-02T11:14:32.611Z,9.2
2018-08-02T11:15:32.739Z,8.9
2018-08-02T11:16:33.111Z,9.7
2018-08-02T11:17:32.585Z,9.4
2018-08-02T11:18:33.066Z,9.0
2018-08-02T11:19:32.632Z,8.9
2018-08-02T11:20:32.660Z,9.1
2018-08-02T11:21:33.136Z,9.9
2018-08-02T11:22:33.134Z,10.2
2018-08-02T11:23:32.773Z,9.6
2018-08-02T11:24:33.141Z,10.0
2018-08-02T11:25:32.628Z,9.4
2018-08-02T11:27:32.641Z,9.0
2018-08-02T11:28:32.691Z,9.2
2018-08-02T11:29:32.688Z,9.0
2018-08-02T11:30:32.644Z,8.4
2018-08-02T11:33:33.165Z,8.8
2018-08-02T11:34:33.181Z,8.3
2018-08-02T11:35:32.649Z,8.9
2018-08-02T11:36:33.277Z,9.4
2018-08-02T11:37:32.851Z,9.2
2018-08-02T11:38:33.220Z,8.9
2018-08-02T11:39:33.166Z,8.8
2018-08-02T11:40:33.154Z,9.6
2018-08-02T11:41:33.145Z,10.3
2018-08-02T11:42:33.254Z,10.6
2018-08-02T11:43:33.215Z,10.9
2018-08-02T11:45:33.265Z,10.4
2018-08-02T11:46:33.818Z,10.5
2018-08-02T11:48:32.695Z,9.7
2018-08-02T11:49:33.163Z,9.8
2018-08-02T11:50:33.052Z,10.2
2018-08-02T11:52:33.248Z,9.5
2018-08-02T11:53:33.172Z,9.6
2018-08-02T11:54:33.265Z,9.7
2018-08-02T11:55:32.749Z,9.6
2018-08-02T11:56:32.798Z,9.5
2018-08-02T11:57:32.964Z,9.8
2018-08-02T11:58:32.730Z,8.9
2018-08-02T11:59:32.723Z,9.7
2018-08-02T12:00:32.740Z,9.0
2018-08-02T12:01:32.829Z,9.5
2018-08-02T12:02:32.742Z,9.4
2018-08-02T12:03:32.806Z,9.0
2018-08-02T12:04:32.714Z,9.1
2018-08-02T12:05:32.831Z,9.4
2018-08-02T12:06:32.789Z,9.3
2018-08-02T12:07:33.225Z,9.3
2018-08-02T12:08:32.828Z,9.9
2018-08-02T12:09:32.795Z,9.6
2018-08-02T12:10:32.721Z,10.3
2018-08-02T12:11:32.761Z,9.9
2018-08-02T12:13:32.793Z,9.4
2018-08-02T12:15:33.088Z,8.9
2018-08-02T12:16:32.936Z,9.0
2018-08-02T12:17:32.804Z,9.0
2018-08-02T12:18:33.380Z,9.0
2018-08-02T12:19:33.381Z,9.0
2018-08-02T12:20:32.732Z,8.7
2018-08-02T12:21:32.849Z,9.1
2018-08-02T12:22:32.763Z,8.8
2018-08-02T12:23:33.408Z,8.5
2018-08-02T12:24:32.755Z,8.9
2018-08-02T12:25:33.805Z,8.7
2018-08-02T12:26:33.227Z,8.9
2018-08-02T12:27:33.925Z,8.9
2018-08-02T12:28:32.759Z,8.7
2018-08-02T12:29:33.232Z,8.9
2018-08-02T12:30:33.287Z,8.6
2018-08-02T12:31:32.780Z,8.9
2018-08-02T12:32:32.802Z,8.3
2018-08-02T12:33:32.850Z,8.9
2018-08-02T12:36:33.317Z,8.3
2018-08-02T12:37:33.863Z,8.2
2018-08-02T12:38:33.371Z,8.3
2018-08-02T12:39:33.411Z,8.7
2018-08-02T12:40:32.810Z,8.6
2018-08-02T12:41:32.897Z,8.5
2018-08-02T12:43:32.861Z,8.6
2018-08-02T12:44:32.824Z,8.8
2018-08-02T12:45:32.885Z,8.8
2018-08-02T12:46:33.379Z,8.8
2018-08-02T12:47:32.945Z,8.7
2018-08-02T12:48:33.277Z,9.1
2018-08-02T12:49:32.833Z,9.0
2018-08-02T12:50:32.833Z,8.6
2018-08-02T12:51:32.887Z,8.6
2018-08-02T12:52:32.997Z,8.9
2018-08-02T12:53:32.853Z,9.7
2018-08-02T12:55:32.932Z,9.2
2018-08-02T12:56:33.325Z,9.7
2018-08-02T12:57:33.411Z,9.7
2018-08-02T12:58:33.351Z,9.3
2018-08-02T12:59:33.381Z,9.3
2018-08-02T13:01:33.395Z,9.1
2018-08-02T13:02:32.824Z,9.2
2018-08-02T13:03:33.336Z,9.5
2018-08-02T13:04:32.809Z,9.6
2018-08-02T13:05:33.322Z,9.6
2018-08-02T13:06:33.313Z,9.6
2018-08-02T13:08:34.265Z,9.9
2018-08-02T13:09:32.900Z,9.5
2018-08-02T13:10:32.981Z,9.4
2018-08-02T13:11:33.376Z,9.3
2018-08-02T13:13:32.928Z,9.3
2018-08-02T13:15:32.923Z,9.6
2018-08-02T13:20:32.919Z,9.4
2018-08-02T13:21:33.419Z,9.1
2018-08-02T13:22:32.978Z,9.1
2018-08-02T13:23:33.044Z,9.3
2018-08-02T13:24:32.955Z,8.9
2018-08-02T13:26:32.862Z,9.3
2018-08-02T13:27:33.574Z,9.1
2018-08-02T13:28:32.866Z,9.3
2018-08-02T13:29:33.415Z,9.3
2018-08-02T13:30:33.336Z,9.3
2018-08-02T13:31:32.913Z,10.0
2018-08-02T13:32:32.889Z,9.0
2018-08-02T13:33:32.855Z,9.2
2018-08-02T13:34:33.394Z,8.7
2018-08-02T13:35:33.449Z,8.6
2018-08-02T13:36:33.348Z,8.6
2018-08-02T13:37:34.071Z,9.2
2018-08-02T13:38:33.450Z,9.5
2018-08-02T13:39:32.913Z,9.1
2018-08-02T13:40:33.352Z,9.2
2018-08-02T13:42:32.950Z,8.6
2018-08-02T13:43:33.395Z,8.9
2018-08-02T13:44:33.534Z,9.6
2018-08-02T13:45:32.888Z,8.9
2018-08-02T13:46:33.342Z,9.4
2018-08-02T13:47:32.932Z,9.3
2018-08-02T13:48:33.404Z,9.5
2018-08-02T13:49:34.693Z,8.8
2018-08-02T13:51:33.466Z,8.4
2018-08-02T13:52:33.372Z,9.2
2018-08-02T13:53:32.885Z,8.9
2018-08-02T13:54:33.424Z,9.3
2018-08-02T13:55:33.430Z,8.8
2018-08-02T13:56:33.564Z,9.4
2018-08-02T13:59:33.358Z,9.6
2018-08-02T14:00:32.911Z,9.3
2018-08-02T14:02:32.946Z,9.1
2018-08-02T14:03:32.940Z,9.6
2018-08-02T14:04:33.537Z,9.8
2018-08-02T14:05:32.892Z,9.8
2018-08-02T14:06:32.981Z,9.5
2018-08-02T14:07:34.675Z,9.3
2018-08-02T14:09:32.943Z,9.5
2018-08-02T14:10:36.573Z,9.6
2018-08-02T14:11:33.429Z,9.5
2018-08-02T14:12:32.987Z,9.1
2018-08-02T14:13:33.404Z,9.1
2018-08-02T14:14:33.059Z,9.4
2018-08-02T14:15:32.964Z,9.5
2018-08-02T14:16:32.958Z,8.8
2018-08-02T14:17:33.863Z,9.3
2018-08-02T14:18:32.947Z,9.0
2018-08-02T14:20:32.994Z,9.3
2018-08-02T14:21:32.995Z,9.5
2018-08-02T14:22:33.211Z,10.0
2018-08-02T14:23:32.990Z,9.8
2018-08-02T14:24:32.937Z,9.5
2018-08-02T14:25:32.933Z,9.5
2018-08-02T14:27:33.027Z,9.8
2018-08-02T14:28:33.474Z,9.6
2018-08-02T14:29:33.580Z,9.6
2018-08-02T14:30:33.663Z,9.2
2018-08-02T14:31:32.954Z,9.6
2018-08-02T14:32:33.033Z,9.8
2018-08-02T14:33:33.465Z,9.6
2018-08-02T14:34:33.011Z,9.1
2018-08-02T14:35:32.982Z,9.7
2018-08-02T14:36:33.501Z,9.6
2018-08-02T14:37:33.435Z,9.9
2018-08-02T14:38:33.129Z,9.4
2018-08-02T14:39:33.426Z,9.9
2018-08-02T14:40:33.023Z,9.7
2018-08-02T14:41:33.576Z,8.9
2018-08-02T14:42:33.742Z,9.2
2018-08-02T14:43:33.054Z,10.2
2018-08-02T14:44:33.053Z,9.6
2018-08-02T14:45:33.020Z,10.2
2018-08-02T14:46:33.407Z,9.5
2018-08-02T14:47:33.506Z,9.5
2018-08-02T14:48:33.550Z,10.1
2018-08-02T14:49:32.990Z,9.6
2018-08-02T14:50:33.079Z,9.5
2018-08-02T14:52:33.052Z,9.3
2018-08-02T14:53:33.556Z,9.4
2018-08-02T14:54:33.132Z,9.6
2018-08-02T14:55:33.573Z,9.7
2018-08-02T14:56:33.549Z,9.5
2018-08-02T14:57:33.061Z,10.0
2018-08-02T14:58:34.640Z,9.5
2018-08-02T14:59:33.074Z,10.5
2018-08-02T15:00:33.509Z,9.8
2018-08-02T15:01:33.611Z,10.2
2018-08-02T15:03:33.624Z,11.4
2018-08-02T15:04:34.154Z,11.8
2018-08-02T15:05:33.174Z,11.8
2018-08-02T15:06:33.720Z,12.4
2018-08-02T15:07:33.092Z,12.5
2018-08-02T15:08:33.195Z,12.9
2018-08-02T15:09:33.072Z,12.6
2018-08-02T15:10:33.682Z,12.9
2018-08-02T15:11:33.806Z,12.5
2018-08-02T15:12:33.236Z,12.3
2018-08-02T15:13:33.624Z,12.7
2018-08-02T15:14:33.152Z,12.9
2018-08-02T15:15:33.265Z,13.1
2018-08-02T15:16:33.107Z,12.6
2018-08-02T15:17:33.593Z,13.6
2018-08-02T15:18:33.635Z,13.8
2018-08-02T15:19:33.153Z,14.3
2018-08-02T15:20:33.145Z,13.5
2018-08-02T15:21:33.598Z,13.6
2018-08-02T15:22:33.826Z,13.4
2018-08-02T15:23:33.706Z,13.2
2018-08-02T15:24:33.286Z,13.8
2018-08-02T15:25:33.304Z,13.7
2018-08-02T15:26:33.823Z,14.3
2018-08-02T15:27:33.280Z,13.6
2018-08-02T15:28:33.724Z,14.2
2018-08-02T15:29:33.234Z,14.4
2018-08-02T15:30:33.256Z,14.8
2018-08-02T15:31:33.415Z,14.5
2018-08-02T15:32:33.198Z,14.5
2018-08-02T15:33:33.639Z,14.4
2018-08-02T15:34:33.236Z,14.1
2018-08-02T15:35:33.754Z,13.5
2018-08-02T15:37:34.496Z,13.6
2018-08-02T15:39:33.243Z,13.5
2018-08-02T15:40:34.608Z,13.6
2018-08-02T15:41:33.281Z,13.7
2018-08-02T15:42:33.375Z,12.9
2018-08-02T15:43:35.758Z,12.8
2018-08-02T15:44:33.940Z,12.7
2018-08-02T15:45:33.790Z,12.9
2018-08-02T15:46:33.912Z,13.1
2018-08-02T15:47:34.338Z,13.0
2018-08-02T15:48:34.419Z,12.9
2018-08-02T15:49:35.682Z,12.0
2018-08-02T15:50:33.637Z,13.0
2018-08-02T15:51:33.327Z,13.3
2018-08-02T15:52:33.321Z,13.0
2018-08-02T15:53:33.747Z,13.4
2018-08-02T15:54:33.318Z,12.8
2018-08-02T15:55:34.241Z,13.4
2018-08-02T15:56:33.902Z,13.2
2018-08-02T15:57:33.753Z,12.7
2018-08-02T15:58:33.701Z,13.0
2018-08-02T15:59:33.647Z,13.1